Архив погоды в Кашкаранцах

Метеограмма Кашкаранцы
Понедельник, 24 Сентября
Время местн. Темп Ветер Видим Явления Облачность нижн/средн/верх Атм. давл. Влжн Точка росы ВНГО R Сост. почвы Tg s
Напр Скр Прв ур.ст ур.м изм
06:00 - +9.1° З,Ю-З 11 13 - - - 743 744 +0.6 84% +6.5° - - - - -
03:00 - +10.3° Ю-З 9 10 - - - 743 743 +0.2 78% +6.6° - - - - -
00:00 - +11.2° Ю-З 8 9 - - - 743 743 +0.1 81% +8.1° - - - - -
Воскресенье, 23 Сентября
Время местн. Темп Ветер Видим Явления Облачность нижн/средн/верх Атм. давл. Влжн Точка росы ВНГО R Сост. почвы Tg s
Напр Скр Прв ур.ст ур.м изм
21:00 +11.7° Ю,Ю-З 9 11 50 км - переменная облачность 743 743 -0.8 83% +9° 1 км 0 - - -
18:00 - +11.5° Ю 9 10 - - - 744 744 -0.8 82% +8.6° - - - - -
15:00 - +11.4° Ю 10 13 - - - 744 745 -0.2 81% +8.2° - - - - -
12:00 - +10.9° Ю,Ю-З 10 12 - - - 744 745 -0.1 85% +8.4° - - - - -
09:00 +11.2° Ю,Ю-З 11 14 20 км - переменная облачность 745 745 -0.2 84% +8.6° - 0 Влажная (без луж) - -
06:00 - +11.5° Ю,Ю-З 12 14 - - - 745 745 -0.2 85% +9.1° - - - - -
03:00 - +12° Ю,Ю-З 11 14 - - - 745 746 +0.2 84% +9.3° - - - - -
00:00 - +12.5° Ю,Ю-З 9 11 - - - 745 745 +0.5 82% +9.5° - - - - -
Суббота, 22 Сентября
Время местн. Темп Ветер Видим Явления Облачность нижн/средн/верх Атм. давл. Влжн Точка росы ВНГО R Сост. почвы Tg s
Напр Скр Прв ур.ст ур.м изм
21:00 +13.2° Ю-З 7 9 20 км - преимущественно облачно 744 745 -1 77% +9.2° 1 км 0 - - -
18:00 - +14.5° Ю 11 13 - - - 743 744 -1 82% +11.5° - - - - -
12:00 - +13.1° В,Ю-В 4 6 - - - 746 747 -1.4 91% +11.7° - - - - -
06:00 - +11.3° Ю 8 11 - - - 749 749 -2.1 94% +10.4° - - - - -
03:00 - +11.3° Ю 6 8 - - - 751 751 -0.4 83% +8.5° - - - - -
00:00 - +11.2° Ю,Ю-З 7 8 - - - 751 752 +0.2 83% +8.4° - - - - -
Пятница, 21 Сентября
Время местн. Темп Ветер Видим Явления Облачность нижн/средн/верх Атм. давл. Влжн Точка росы ВНГО R Сост. почвы Tg s
Напр Скр Прв ур.ст ур.м изм
21:00 +11.5° Ю-З 8 9 20 км - облачно с прояснениями 751 752 +0.1 80% +8.1° 1 км 0 - - -
18:00 - +12.4° З,Ю-З 8 10 - - - 751 752 +0.8 72% +7.6° - - - - -
09:00 +11.3° З 13 17 20 км - переменная облачность 747 748 +1.1 79% +7.8° 1 км 0.3 Влажная (без луж) - -
Четверг, 20 Сентября
Время местн. Темп Ветер Видим Явления Облачность нижн/средн/верх Атм. давл. Влжн Точка росы ВНГО R Сост. почвы Tg s
Напр Скр Прв ур.ст ур.м изм
21:00 +12.7° Ю 9 13 10 км - облачно 747 747 -2.3 93% +11.6° 600 м 0.3 - - -
12:00 - +9.3° В,Ю-В 6 8 - - - 752 753 -0.7 92% +8° - - - - -
09:00 +8.4° В 5 7 20 км - облачно 753 753 -0.2 88% +6.5° 1 км 0 Влажная (без луж) - -
06:00 - +6.9° В 5 6 - - - 753 754 -0.2 91% +5.5° - - - - -
03:00 - +4.2° В 3 4 - - - 753 754 -0.5 93% +3.1° - - - - -
00:00 - +1.9° В,С-В 3 3 - - - 754 754 -0.2 92% +0.8° - - - - -